createdAt,value
2022-08-19T00:03:08.949Z,99.90
2022-08-19T00:08:10.876Z,99.90
2022-08-19T00:13:12.740Z,99.90
2022-08-19T00:18:16.045Z,99.90
2022-08-19T00:23:17.899Z,99.90
2022-08-19T00:28:20.100Z,99.90
2022-08-19T00:33:23.431Z,99.90
2022-08-19T00:38:36.307Z,99.90
2022-08-19T00:43:39.812Z,99.90
2022-08-19T00:48:43.055Z,99.90
2022-08-19T00:53:44.899Z,99.90
2022-08-19T00:58:47.271Z,99.90
2022-08-19T01:03:57.848Z,99.90
2022-08-19T01:09:00.841Z,99.90
2022-08-19T01:14:03.827Z,99.90
2022-08-19T01:19:12.599Z,99.90
2022-08-19T01:24:16.395Z,99.90
2022-08-19T01:29:18.452Z,99.90
2022-08-19T01:34:22.153Z,99.90
2022-08-19T01:39:26.352Z,99.90
2022-08-19T01:44:28.216Z,99.90
2022-08-19T01:49:30.548Z,99.90
2022-08-19T01:54:34.374Z,99.90
2022-08-19T01:59:36.749Z,99.90
2022-08-19T02:04:38.853Z,99.90
2022-08-19T02:09:42.245Z,99.90
2022-08-19T02:14:44.233Z,99.90
2022-08-19T02:19:46.045Z,99.90
2022-08-19T02:24:49.409Z,99.90
2022-08-19T02:29:52.021Z,99.90
2022-08-19T02:34:54.058Z,99.90
2022-08-19T02:39:57.740Z,99.90
2022-08-19T02:44:59.668Z,99.90
2022-08-19T02:50:02.792Z,99.90
2022-08-19T02:55:07.485Z,99.90
2022-08-19T03:00:10.660Z,99.90
2022-08-19T03:05:12.571Z,99.90
2022-08-19T03:10:15.879Z,99.90
2022-08-19T03:15:17.725Z,99.90
2022-08-19T03:20:19.684Z,99.90
2022-08-19T03:25:22.973Z,99.90
2022-08-19T03:30:24.849Z,99.90
2022-08-19T03:35:27.200Z,99.90
2022-08-19T03:40:30.697Z,99.90
2022-08-19T03:45:32.526Z,99.90
2022-08-19T03:50:39.127Z,99.90
2022-08-19T03:55:42.790Z,99.90
2022-08-19T04:00:44.697Z,99.90
2022-08-19T04:05:47.354Z,99.90
2022-08-19T04:10:50.766Z,99.90
2022-08-19T04:15:52.591Z,99.90
2022-08-19T04:20:54.467Z,99.90
2022-08-19T04:25:58.519Z,99.90
2022-08-19T04:31:00.714Z,99.90
2022-08-19T04:36:02.687Z,99.90
2022-08-19T04:41:06.102Z,99.90
2022-08-19T04:46:09.255Z,99.90
2022-08-19T04:51:12.914Z,99.90
2022-08-19T04:56:18.448Z,99.90
2022-08-19T05:01:23.887Z,99.90
2022-08-19T05:06:25.752Z,99.90
2022-08-19T05:11:31.245Z,99.90
2022-08-19T05:16:33.144Z,99.90
2022-08-19T05:21:36.237Z,99.90
2022-08-19T05:26:40.879Z,99.90
2022-08-19T05:31:43.004Z,99.90
2022-08-19T05:36:46.079Z,99.90
2022-08-19T05:41:52.345Z,99.90
2022-08-19T05:46:54.195Z,99.90
2022-08-19T05:51:56.650Z,99.90
2022-08-19T05:57:01.749Z,99.90
2022-08-19T06:02:03.786Z,99.90
2022-08-19T06:07:12.508Z,99.90
2022-08-19T06:12:16.308Z,99.90
2022-08-19T06:17:21.023Z,99.90
2022-08-19T06:22:23.019Z,99.90
2022-08-19T06:27:26.284Z,99.90
2022-08-19T06:32:28.319Z,99.90
2022-08-19T06:37:30.161Z,99.90
2022-08-19T06:42:33.459Z,99.90
2022-08-19T06:47:36.767Z,99.90
2022-08-19T06:52:39.285Z,99.90
2022-08-19T06:57:43.652Z,99.90
2022-08-19T07:02:50.612Z,99.90
2022-08-19T07:08:04.642Z,99.90
2022-08-19T07:13:08.429Z,99.90
2022-08-19T07:18:11.777Z,99.90
2022-08-19T07:23:16.212Z,99.90
2022-08-19T07:28:23.889Z,99.90
2022-08-19T07:33:27.908Z,99.90
2022-08-19T07:38:29.971Z,99.90
2022-08-19T07:43:34.731Z,99.90
2022-08-19T07:48:36.972Z,99.90
2022-08-19T07:53:41.991Z,99.90
2022-08-19T07:58:47.028Z,99.90
2022-08-19T08:03:49.877Z,99.90
2022-08-19T08:08:51.761Z,99.90
2022-08-19T08:14:00.908Z,99.90
2022-08-19T08:19:14.733Z,98.60
2022-08-19T08:24:23.256Z,96.70
2022-08-19T08:29:34.818Z,95.70
2022-08-19T08:34:37.835Z,95.20
2022-08-19T08:39:39.882Z,93.60
2022-08-19T08:56:27.354Z,96.80
2022-08-19T09:01:30.940Z,96.00
2022-08-19T09:06:40.739Z,95.10
2022-08-19T09:11:57.290Z,93.90
2022-08-19T09:17:00.073Z,92.30
2022-08-19T09:22:02.030Z,93.40
2022-08-19T09:27:18.168Z,92.30
2022-08-19T09:32:26.214Z,91.30
2022-08-19T09:37:29.043Z,88.90
2022-08-19T09:42:36.084Z,86.10
2022-08-19T09:47:38.178Z,85.20
2022-08-19T09:52:42.462Z,86.70
2022-08-19T09:57:58.423Z,88.20
2022-08-19T10:03:00.264Z,87.80
2022-08-19T10:08:04.473Z,84.50
2022-08-19T10:13:20.001Z,83.10
2022-08-19T10:18:23.127Z,81.30
2022-08-19T10:23:25.055Z,83.30
2022-08-19T10:28:28.389Z,78.20
2022-08-19T10:33:40.891Z,76.20
2022-08-19T10:38:56.934Z,72.10
2022-08-19T10:44:04.671Z,71.60
2022-08-19T10:49:07.028Z,72.40
2022-08-19T10:54:12.585Z,67.70
2022-08-19T10:59:17.475Z,68.50
2022-08-19T11:04:20.277Z,66.10
2022-08-19T11:09:24.527Z,68.40
2022-08-19T11:14:27.851Z,64.40
2022-08-19T11:19:35.112Z,64.80
2022-08-19T11:24:37.687Z,64.30
2022-08-19T11:29:41.246Z,63.00
2022-08-19T11:34:43.136Z,61.90
2022-08-19T11:39:45.192Z,60.20
2022-08-19T11:44:56.875Z,59.50
2022-08-19T11:49:58.695Z,58.60
2022-08-19T11:55:00.751Z,56.60
2022-08-19T12:00:05.727Z,58.00
2022-08-19T12:05:12.248Z,57.60
2022-08-19T12:10:14.886Z,57.50
2022-08-19T12:15:22.484Z,57.60
2022-08-19T12:20:25.618Z,57.10
2022-08-19T12:25:27.584Z,56.00
2022-08-19T12:30:30.811Z,52.90
2022-08-19T12:35:33.684Z,56.10
2022-08-19T12:40:35.580Z,54.00
2022-08-19T12:45:40.321Z,53.30
2022-08-19T12:50:45.555Z,55.10
2022-08-19T12:55:47.539Z,54.60
2022-08-19T13:00:52.005Z,55.70
2022-08-19T13:05:53.714Z,53.60
2022-08-19T13:10:55.651Z,53.10
2022-08-19T13:16:01.472Z,51.70
2022-08-19T13:21:04.547Z,51.10
2022-08-19T13:26:08.247Z,52.60
2022-08-19T13:31:11.441Z,51.30
2022-08-19T13:36:13.351Z,51.90
2022-08-19T13:41:15.296Z,54.40
2022-08-19T13:46:18.729Z,52.90
2022-08-19T13:51:20.540Z,51.30
2022-08-19T13:56:26.085Z,51.70
2022-08-19T14:01:29.923Z,49.80
2022-08-19T14:06:31.813Z,51.10
2022-08-19T14:11:33.675Z,51.90
2022-08-19T14:16:36.986Z,47.90
2022-08-19T14:21:41.642Z,48.80
2022-08-19T14:26:43.647Z,49.90
2022-08-19T14:31:47.048Z,47.60
2022-08-19T14:36:49.107Z,46.30
2022-08-19T14:41:52.028Z,45.80
2022-08-19T14:46:55.220Z,46.10
2022-08-19T14:51:57.141Z,46.60
2022-08-19T14:56:58.971Z,47.70
2022-08-19T15:02:34.107Z,47.20
2022-08-19T15:07:24.141Z,48.50
2022-08-19T15:12:30.749Z,48.70
2022-08-19T15:17:45.518Z,48.60
2022-08-19T15:22:56.114Z,49.10
2022-08-19T15:33:46.044Z,50.50
2022-08-19T15:38:47.895Z,51.10
2022-08-19T15:43:52.336Z,49.60
2022-08-19T15:48:59.667Z,49.10
2022-08-19T15:54:02.476Z,50.20
2022-08-19T15:59:04.315Z,49.90
2022-08-19T16:04:11.111Z,47.70
2022-08-19T16:09:22.093Z,49.00
2022-08-19T16:14:27.228Z,48.20
2022-08-19T16:19:30.585Z,45.80
2022-08-19T16:24:32.839Z,46.30
2022-08-19T16:29:39.285Z,48.20
2022-08-19T16:34:43.512Z,49.40
2022-08-19T16:39:48.401Z,48.40
2022-08-19T16:44:50.268Z,50.10
2022-08-19T16:49:55.475Z,50.70
2022-08-19T16:54:57.605Z,51.00
2022-08-19T16:59:59.525Z,52.00
2022-08-19T17:05:02.897Z,52.70
2022-08-19T17:10:05.865Z,51.10
2022-08-19T17:15:08.466Z,51.70
2022-08-19T17:20:11.984Z,51.70
2022-08-19T17:25:13.860Z,51.70
2022-08-19T17:30:15.836Z,51.80
2022-08-19T17:35:23.921Z,52.40
2022-08-19T17:40:26.327Z,50.70
2022-08-19T17:45:32.228Z,51.00
2022-08-19T17:50:36.351Z,50.90
2022-08-19T17:55:38.137Z,51.20
2022-08-19T18:00:54.030Z,52.80
2022-08-19T18:43:45.418Z,56.50
2022-08-19T18:48:49.571Z,55.70
2022-08-19T18:53:51.496Z,56.70
2022-08-19T18:58:55.052Z,56.90
2022-08-19T19:04:00.345Z,57.90
2022-08-19T19:09:02.337Z,57.90
2022-08-19T19:14:07.179Z,59.70
2022-08-19T19:24:45.071Z,60.50
2022-08-19T19:29:52.085Z,61.10
2022-08-19T19:34:54.630Z,62.00
2022-08-19T19:39:59.393Z,62.90
2022-08-19T19:45:02.783Z,62.70
2022-08-19T19:50:14.995Z,63.00
2022-08-19T19:55:19.195Z,63.40
2022-08-19T20:00:22.411Z,63.80
2022-08-19T20:05:25.451Z,64.30
2022-08-19T20:10:27.220Z,65.20
2022-08-19T20:15:30.823Z,65.30
2022-08-19T20:20:32.776Z,66.50
2022-08-19T20:25:36.590Z,67.70
2022-08-19T20:30:46.283Z,68.90
2022-08-19T20:36:00.178Z,70.10
2022-08-19T20:41:02.462Z,71.10
2022-08-19T20:46:07.035Z,71.80
2022-08-19T20:51:14.100Z,72.70
2022-08-19T20:56:15.904Z,73.60
2022-08-19T21:01:19.811Z,73.90
2022-08-19T21:06:23.115Z,74.60
2022-08-19T21:11:25.184Z,75.60
2022-08-19T21:16:28.386Z,76.50
2022-08-19T21:21:42.525Z,77.80
2022-08-19T21:26:47.176Z,78.90
2022-08-19T21:31:57.339Z,80.10
2022-08-19T21:36:59.138Z,82.80
2022-08-19T21:42:00.975Z,83.80
2022-08-19T21:47:04.429Z,84.50
2022-08-19T21:52:06.522Z,86.30
2022-08-19T21:57:10.666Z,88.40
2022-08-19T22:02:22.122Z,89.40
2022-08-19T22:07:24.060Z,90.50
2022-08-19T22:12:29.316Z,91.70
2022-08-19T22:17:32.656Z,92.80
2022-08-19T22:22:35.017Z,93.00
2022-08-19T22:27:37.564Z,94.30
2022-08-19T22:32:45.154Z,95.00
2022-08-19T22:37:46.962Z,95.70
2022-08-19T22:42:48.740Z,95.70
2022-08-19T22:47:52.057Z,95.30
2022-08-19T22:52:56.593Z,96.00
2022-08-19T22:57:58.629Z,95.60
2022-08-19T23:03:01.873Z,95.70
2022-08-19T23:08:04.133Z,95.90
2022-08-19T23:13:06.094Z,96.10
2022-08-19T23:18:09.661Z,96.40
2022-08-19T23:23:14.710Z,96.90
2022-08-19T23:28:16.515Z,97.50
2022-08-19T23:33:22.017Z,97.80
2022-08-19T23:38:26.401Z,98.20
2022-08-19T23:43:28.853Z,98.80
2022-08-19T23:48:33.649Z,99.30
2022-08-19T23:53:36.704Z,99.90
2022-08-19T23:58:39.034Z,99.90
